sensor_id;sensor_type;location;lat;lon;timestamp;P1;durP1;ratioP1;P2;durP2;ratioP2
928;SDS011;451;47.988;7.842;2023-01-15T00:06:57;1.07;;;0.87;;
928;SDS011;451;47.988;7.842;2023-01-15T00:16:05;0.90;;;0.80;;
928;SDS011;451;47.988;7.842;2023-01-15T00:25:11;0.90;;;0.70;;
928;SDS011;451;47.988;7.842;2023-01-15T00:34:31;1.00;;;0.90;;
928;SDS011;451;47.988;7.842;2023-01-15T00:43:35;1.03;;;0.70;;
928;SDS011;451;47.988;7.842;2023-01-15T00:52:41;1.43;;;0.70;;
928;SDS011;451;47.988;7.842;2023-01-15T01:01:42;0.90;;;0.90;;
928;SDS011;451;47.988;7.842;2023-01-15T01:10:44;1.00;;;0.80;;
928;SDS011;451;47.988;7.842;2023-01-15T01:19:46;0.80;;;0.80;;
928;SDS011;451;47.988;7.842;2023-01-15T01:28:49;0.90;;;0.80;;
928;SDS011;451;47.988;7.842;2023-01-15T01:37:52;1.20;;;0.90;;
928;SDS011;451;47.988;7.842;2023-01-15T01:46:54;1.13;;;0.70;;
928;SDS011;451;47.988;7.842;2023-01-15T01:55:56;0.97;;;0.80;;
928;SDS011;451;47.988;7.842;2023-01-15T02:04:59;0.80;;;0.60;;
928;SDS011;451;47.988;7.842;2023-01-15T02:14:09;0.80;;;0.50;;
928;SDS011;451;47.988;7.842;2023-01-15T02:23:22;1.37;;;0.60;;
928;SDS011;451;47.988;7.842;2023-01-15T02:32:53;0.80;;;0.60;;
928;SDS011;451;47.988;7.842;2023-01-15T02:42:00;0.80;;;0.60;;
928;SDS011;451;47.988;7.842;2023-01-15T02:51:14;0.80;;;0.60;;
928;SDS011;451;47.988;7.842;2023-01-15T03:00:20;1.20;;;0.70;;
928;SDS011;451;47.988;7.842;2023-01-15T03:09:25;0.90;;;0.77;;
928;SDS011;451;47.988;7.842;2023-01-15T03:18:30;0.90;;;0.70;;
928;SDS011;451;47.988;7.842;2023-01-15T03:27:42;0.87;;;0.83;;
928;SDS011;451;47.988;7.842;2023-01-15T03:36:44;0.90;;;0.70;;
928;SDS011;451;47.988;7.842;2023-01-15T03:45:47;0.90;;;0.77;;
928;SDS011;451;47.988;7.842;2023-01-15T04:04:09;1.00;;;0.70;;
928;SDS011;451;47.988;7.842;2023-01-15T04:13:13;0.90;;;0.80;;
928;SDS011;451;47.988;7.842;2023-01-15T04:22:18;1.17;;;1.07;;
928;SDS011;451;47.988;7.842;2023-01-15T04:31:20;1.00;;;0.90;;
928;SDS011;451;47.988;7.842;2023-01-15T04:40:23;1.07;;;0.80;;
928;SDS011;451;47.988;7.842;2023-01-15T04:49:43;1.10;;;1.00;;
928;SDS011;451;47.988;7.842;2023-01-15T04:58:45;1.20;;;1.10;;
928;SDS011;451;47.988;7.842;2023-01-15T05:07:47;1.30;;;1.00;;
928;SDS011;451;47.988;7.842;2023-01-15T05:16:48;1.20;;;1.10;;
928;SDS011;451;47.988;7.842;2023-01-15T05:25:50;1.00;;;0.90;;
928;SDS011;451;47.988;7.842;2023-01-15T05:34:52;1.10;;;1.00;;
928;SDS011;451;47.988;7.842;2023-01-15T05:43:54;1.10;;;1.00;;
928;SDS011;451;47.988;7.842;2023-01-15T05:52:56;1.67;;;0.90;;
928;SDS011;451;47.988;7.842;2023-01-15T06:01:58;1.03;;;0.93;;
928;SDS011;451;47.988;7.842;2023-01-15T06:11:00;1.30;;;1.10;;
928;SDS011;451;47.988;7.842;2023-01-15T06:20:03;1.10;;;1.00;;
928;SDS011;451;47.988;7.842;2023-01-15T06:29:05;1.47;;;1.17;;
928;SDS011;451;47.988;7.842;2023-01-15T06:38:07;1.67;;;1.57;;
928;SDS011;451;47.988;7.842;2023-01-15T06:47:20;1.47;;;1.37;;
928;SDS011;451;47.988;7.842;2023-01-15T06:56:22;1.10;;;1.00;;
928;SDS011;451;47.988;7.842;2023-01-15T07:05:24;1.10;;;1.00;;
928;SDS011;451;47.988;7.842;2023-01-15T07:14:25;1.10;;;1.00;;
928;SDS011;451;47.988;7.842;2023-01-15T07:23:31;0.80;;;0.77;;
928;SDS011;451;47.988;7.842;2023-01-15T07:32:33;1.20;;;1.10;;
928;SDS011;451;47.988;7.842;2023-01-15T07:41:35;1.37;;;1.27;;
928;SDS011;451;47.988;7.842;2023-01-15T07:50:55;1.63;;;1.53;;
928;SDS011;451;47.988;7.842;2023-01-15T07:59:57;1.97;;;1.87;;
928;SDS011;451;47.988;7.842;2023-01-15T08:08:58;2.17;;;2.03;;
928;SDS011;451;47.988;7.842;2023-01-15T08:18:00;1.67;;;1.57;;
928;SDS011;451;47.988;7.842;2023-01-15T08:27:02;3.43;;;1.73;;
928;SDS011;451;47.988;7.842;2023-01-15T08:36:05;1.47;;;1.37;;
928;SDS011;451;47.988;7.842;2023-01-15T08:45:07;1.83;;;1.73;;
928;SDS011;451;47.988;7.842;2023-01-15T08:54:09;1.93;;;1.83;;
928;SDS011;451;47.988;7.842;2023-01-15T09:03:12;1.70;;;1.60;;
928;SDS011;451;47.988;7.842;2023-01-15T09:12:14;3.50;;;2.20;;
928;SDS011;451;47.988;7.842;2023-01-15T09:21:15;1.67;;;1.40;;
928;SDS011;451;47.988;7.842;2023-01-15T09:30:18;1.80;;;1.70;;
928;SDS011;451;47.988;7.842;2023-01-15T09:39:21;1.50;;;1.40;;
928;SDS011;451;47.988;7.842;2023-01-15T09:48:29;1.70;;;1.60;;
928;SDS011;451;47.988;7.842;2023-01-15T09:57:43;1.37;;;1.27;;
928;SDS011;451;47.988;7.842;2023-01-15T10:06:50;2.23;;;1.70;;
928;SDS011;451;47.988;7.842;2023-01-15T10:16:00;2.03;;;1.93;;
928;SDS011;451;47.988;7.842;2023-01-15T10:25:03;1.93;;;1.60;;
928;SDS011;451;47.988;7.842;2023-01-15T10:43:52;1.20;;;1.10;;
928;SDS011;451;47.988;7.842;2023-01-15T10:53:13;1.60;;;1.50;;
928;SDS011;451;47.988;7.842;2023-01-15T11:11:37;1.57;;;1.47;;
928;SDS011;451;47.988;7.842;2023-01-15T11:20:59;1.53;;;1.43;;
928;SDS011;451;47.988;7.842;2023-01-15T11:30:02;2.07;;;1.97;;
928;SDS011;451;47.988;7.842;2023-01-15T11:39:20;1.47;;;1.37;;
928;SDS011;451;47.988;7.842;2023-01-15T11:48:28;1.93;;;1.63;;
928;SDS011;451;47.988;7.842;2023-01-15T11:57:48;1.83;;;1.73;;
928;SDS011;451;47.988;7.842;2023-01-15T12:06:51;2.17;;;2.00;;
928;SDS011;451;47.988;7.842;2023-01-15T12:34:22;1.27;;;1.17;;
928;SDS011;451;47.988;7.842;2023-01-15T12:43:30;2.17;;;1.53;;
928;SDS011;451;47.988;7.842;2023-01-15T12:52:57;1.60;;;1.50;;
928;SDS011;451;47.988;7.842;2023-01-15T13:02:35;1.50;;;1.20;;
928;SDS011;451;47.988;7.842;2023-01-15T13:11:42;1.30;;;1.20;;
928;SDS011;451;47.988;7.842;2023-01-15T13:20:46;3.10;;;1.20;;
928;SDS011;451;47.988;7.842;2023-01-15T13:30:03;1.20;;;1.10;;
928;SDS011;451;47.988;7.842;2023-01-15T13:39:14;1.30;;;1.20;;
928;SDS011;451;47.988;7.842;2023-01-15T13:48:23;1.83;;;1.00;;
928;SDS011;451;47.988;7.842;2023-01-15T13:57:36;1.20;;;1.10;;
928;SDS011;451;47.988;7.842;2023-01-15T14:06:45;5.83;;;1.13;;
928;SDS011;451;47.988;7.842;2023-01-15T14:43:17;1.30;;;1.20;;
928;SDS011;451;47.988;7.842;2023-01-15T14:52:21;1.90;;;1.10;;
928;SDS011;451;47.988;7.842;2023-01-15T15:01:43;1.77;;;1.13;;
928;SDS011;451;47.988;7.842;2023-01-15T15:10:52;4.60;;;3.33;;
928;SDS011;451;47.988;7.842;2023-01-15T15:19:57;5.60;;;1.70;;
928;SDS011;451;47.988;7.842;2023-01-15T15:29:11;1.20;;;1.07;;
928;SDS011;451;47.988;7.842;2023-01-15T15:38:15;4.30;;;3.00;;
928;SDS011;451;47.988;7.842;2023-01-15T15:47:20;2.03;;;1.70;;
928;SDS011;451;47.988;7.842;2023-01-15T15:56:51;4.30;;;3.90;;
928;SDS011;451;47.988;7.842;2023-01-15T16:06:00;6.87;;;5.00;;
928;SDS011;451;47.988;7.842;2023-01-15T16:15:04;4.10;;;3.10;;
928;SDS011;451;47.988;7.842;2023-01-15T16:24:08;3.83;;;3.43;;
928;SDS011;451;47.988;7.842;2023-01-15T16:33:22;3.27;;;2.03;;
928;SDS011;451;47.988;7.842;2023-01-15T16:42:37;3.90;;;2.07;;
928;SDS011;451;47.988;7.842;2023-01-15T16:51:44;2.17;;;1.90;;
928;SDS011;451;47.988;7.842;2023-01-15T17:00:46;2.03;;;1.63;;
928;SDS011;451;47.988;7.842;2023-01-15T17:09:52;2.77;;;2.07;;
928;SDS011;451;47.988;7.842;2023-01-15T17:18:56;5.13;;;1.73;;
928;SDS011;451;47.988;7.842;2023-01-15T17:28:00;1.37;;;1.27;;
928;SDS011;451;47.988;7.842;2023-01-15T17:37:03;6.87;;;1.67;;
928;SDS011;451;47.988;7.842;2023-01-15T17:46:05;14.37;;;5.70;;
928;SDS011;451;47.988;7.842;2023-01-15T17:55:17;10.20;;;4.33;;
928;SDS011;451;47.988;7.842;2023-01-15T18:04:45;2.97;;;1.67;;
928;SDS011;451;47.988;7.842;2023-01-15T18:14:11;2.43;;;1.47;;
928;SDS011;451;47.988;7.842;2023-01-15T18:23:14;2.00;;;1.30;;
928;SDS011;451;47.988;7.842;2023-01-15T18:32:16;6.80;;;1.70;;
928;SDS011;451;47.988;7.842;2023-01-15T18:41:19;3.77;;;1.77;;
928;SDS011;451;47.988;7.842;2023-01-15T18:50:52;4.93;;;1.70;;
928;SDS011;451;47.988;7.842;2023-01-15T18:59:56;3.30;;;1.30;;
928;SDS011;451;47.988;7.842;2023-01-15T19:08:58;2.17;;;1.23;;
928;SDS011;451;47.988;7.842;2023-01-15T19:18:02;4.10;;;1.97;;
928;SDS011;451;47.988;7.842;2023-01-15T19:27:23;3.70;;;1.40;;
928;SDS011;451;47.988;7.842;2023-01-15T19:36:25;2.53;;;1.90;;
928;SDS011;451;47.988;7.842;2023-01-15T19:45:26;2.03;;;1.50;;
928;SDS011;451;47.988;7.842;2023-01-15T19:54:47;2.00;;;1.27;;
928;SDS011;451;47.988;7.842;2023-01-15T20:03:57;3.37;;;1.70;;
928;SDS011;451;47.988;7.842;2023-01-15T20:12:59;4.37;;;1.90;;
928;SDS011;451;47.988;7.842;2023-01-15T20:22:20;9.03;;;4.30;;
928;SDS011;451;47.988;7.842;2023-01-15T20:31:27;6.50;;;2.80;;
928;SDS011;451;47.988;7.842;2023-01-15T20:40:29;1.83;;;1.73;;
928;SDS011;451;47.988;7.842;2023-01-15T20:49:31;2.47;;;1.50;;
928;SDS011;451;47.988;7.842;2023-01-15T20:58:32;3.23;;;2.50;;
928;SDS011;451;47.988;7.842;2023-01-15T21:07:35;2.00;;;1.87;;
928;SDS011;451;47.988;7.842;2023-01-15T21:16:37;1.67;;;1.53;;
928;SDS011;451;47.988;7.842;2023-01-15T21:25:39;2.87;;;1.50;;
928;SDS011;451;47.988;7.842;2023-01-15T21:34:41;1.33;;;1.20;;
928;SDS011;451;47.988;7.842;2023-01-15T21:43:42;1.57;;;1.20;;
928;SDS011;451;47.988;7.842;2023-01-15T21:53:03;2.33;;;1.20;;
928;SDS011;451;47.988;7.842;2023-01-15T22:02:05;1.33;;;1.10;;
928;SDS011;451;47.988;7.842;2023-01-15T22:11:11;2.30;;;1.40;;
928;SDS011;451;47.988;7.842;2023-01-15T22:20:13;1.53;;;1.20;;
928;SDS011;451;47.988;7.842;2023-01-15T22:29:16;3.90;;;2.00;;
928;SDS011;451;47.988;7.842;2023-01-15T22:38:18;1.63;;;0.93;;
928;SDS011;451;47.988;7.842;2023-01-15T22:47:19;2.53;;;1.43;;
928;SDS011;451;47.988;7.842;2023-01-15T22:56:23;2.30;;;1.43;;
928;SDS011;451;47.988;7.842;2023-01-15T23:05:25;4.30;;;1.93;;
928;SDS011;451;47.988;7.842;2023-01-15T23:14:26;1.53;;;1.20;;
928;SDS011;451;47.988;7.842;2023-01-15T23:23:28;2.43;;;1.37;;
928;SDS011;451;47.988;7.842;2023-01-15T23:32:31;4.93;;;2.67;;
928;SDS011;451;47.988;7.842;2023-01-15T23:41:32;1.93;;;1.33;;
928;SDS011;451;47.988;7.842;2023-01-15T23:50:52;3.70;;;1.27;;
928;SDS011;451;47.988;7.842;2023-01-15T23:59:54;1.90;;;1.20;;
